sensor_id;sensor_type;location;lat;lon;timestamp;P1;durP1;ratioP1;P2;durP2;ratioP2
26474;SDS011;14161;52.270;10.334;2023-02-10T04:02:30;41.13;;;22.98;;
26474;SDS011;14161;52.270;10.334;2023-02-10T04:04:56;37.97;;;21.48;;
26474;SDS011;14161;52.270;10.334;2023-02-10T04:07:21;36.17;;;21.42;;
26474;SDS011;14161;52.270;10.334;2023-02-10T04:09:47;36.33;;;22.20;;
26474;SDS011;14161;52.270;10.334;2023-02-10T04:12:12;41.55;;;23.60;;
26474;SDS011;14161;52.270;10.334;2023-02-10T04:14:38;40.40;;;22.90;;
26474;SDS011;14161;52.270;10.334;2023-02-10T04:17:04;40.85;;;21.92;;
26474;SDS011;14161;52.270;10.334;2023-02-10T04:19:29;40.05;;;22.77;;
26474;SDS011;14161;52.270;10.334;2023-02-10T04:21:55;36.55;;;21.15;;
26474;SDS011;14161;52.270;10.334;2023-02-10T04:24:20;42.17;;;23.08;;
26474;SDS011;14161;52.270;10.334;2023-02-10T04:26:46;46.20;;;23.23;;
26474;SDS011;14161;52.270;10.334;2023-02-10T04:29:11;43.40;;;24.98;;
26474;SDS011;14161;52.270;10.334;2023-02-10T04:31:37;37.97;;;21.20;;
26474;SDS011;14161;52.270;10.334;2023-02-10T04:34:02;38.78;;;22.27;;
26474;SDS011;14161;52.270;10.334;2023-02-10T04:36:28;51.88;;;27.20;;
26474;SDS011;14161;52.270;10.334;2023-02-10T04:38:53;40.13;;;24.58;;
26474;SDS011;14161;52.270;10.334;2023-02-10T04:41:19;42.92;;;22.92;;
26474;SDS011;14161;52.270;10.334;2023-02-10T04:43:44;42.92;;;23.90;;
26474;SDS011;14161;52.270;10.334;2023-02-10T04:46:10;43.63;;;26.33;;
26474;SDS011;14161;52.270;10.334;2023-02-10T04:48:35;42.15;;;22.98;;
26474;SDS011;14161;52.270;10.334;2023-02-10T04:51:07;41.30;;;22.85;;
26474;SDS011;14161;52.270;10.334;2023-02-10T04:53:33;41.75;;;24.20;;
26474;SDS011;14161;52.270;10.334;2023-02-10T04:55:59;43.55;;;24.35;;
26474;SDS011;14161;52.270;10.334;2023-02-10T04:58:24;46.70;;;26.20;;
26474;SDS011;14161;52.270;10.334;2023-02-10T05:00:49;35.88;;;23.00;;
26474;SDS011;14161;52.270;10.334;2023-02-10T05:03:15;37.55;;;23.52;;
26474;SDS011;14161;52.270;10.334;2023-02-10T05:05:40;39.00;;;24.17;;
26474;SDS011;14161;52.270;10.334;2023-02-10T05:08:06;45.08;;;25.77;;
26474;SDS011;14161;52.270;10.334;2023-02-10T05:10:31;44.20;;;24.90;;
26474;SDS011;14161;52.270;10.334;2023-02-10T05:12:57;40.08;;;23.17;;
26474;SDS011;14161;52.270;10.334;2023-02-10T05:15:22;40.65;;;23.52;;
26474;SDS011;14161;52.270;10.334;2023-02-10T05:17:48;41.40;;;23.45;;
26474;SDS011;14161;52.270;10.334;2023-02-10T05:20:13;41.95;;;24.15;;
26474;SDS011;14161;52.270;10.334;2023-02-10T05:22:39;38.80;;;23.60;;
26474;SDS011;14161;52.270;10.334;2023-02-10T05:25:05;44.67;;;25.65;;
26474;SDS011;14161;52.270;10.334;2023-02-10T05:27:31;40.55;;;23.25;;
26474;SDS011;14161;52.270;10.334;2023-02-10T05:29:56;36.45;;;22.92;;
26474;SDS011;14161;52.270;10.334;2023-02-10T05:32:22;36.65;;;21.55;;
26474;SDS011;14161;52.270;10.334;2023-02-10T05:34:47;36.33;;;21.10;;
26474;SDS011;14161;52.270;10.334;2023-02-10T05:37:13;40.13;;;24.13;;
26474;SDS011;14161;52.270;10.334;2023-02-10T05:39:38;40.28;;;22.42;;
26474;SDS011;14161;52.270;10.334;2023-02-10T05:42:05;34.75;;;22.05;;
26474;SDS011;14161;52.270;10.334;2023-02-10T05:44:30;41.17;;;22.10;;
26474;SDS011;14161;52.270;10.334;2023-02-10T05:46:57;36.53;;;20.98;;
26474;SDS011;14161;52.270;10.334;2023-02-10T05:49:22;38.95;;;21.15;;
26474;SDS011;14161;52.270;10.334;2023-02-10T05:51:48;33.10;;;21.30;;
26474;SDS011;14161;52.270;10.334;2023-02-10T05:54:13;36.90;;;22.30;;
26474;SDS011;14161;52.270;10.334;2023-02-10T05:56:39;34.47;;;21.23;;
26474;SDS011;14161;52.270;10.334;2023-02-10T05:59:05;33.45;;;20.10;;
26474;SDS011;14161;52.270;10.334;2023-02-10T06:01:30;36.25;;;22.17;;
26474;SDS011;14161;52.270;10.334;2023-02-10T06:03:56;32.17;;;19.50;;
26474;SDS011;14161;52.270;10.334;2023-02-10T06:06:21;30.52;;;19.63;;
26474;SDS011;14161;52.270;10.334;2023-02-10T06:08:47;33.13;;;20.85;;
26474;SDS011;14161;52.270;10.334;2023-02-10T06:11:12;34.03;;;19.98;;
26474;SDS011;14161;52.270;10.334;2023-02-10T06:13:38;35.05;;;21.27;;
26474;SDS011;14161;52.270;10.334;2023-02-10T06:16:03;31.75;;;19.30;;
26474;SDS011;14161;52.270;10.334;2023-02-10T06:18:29;31.60;;;18.83;;
26474;SDS011;14161;52.270;10.334;2023-02-10T06:20:56;32.72;;;19.80;;
26474;SDS011;14161;52.270;10.334;2023-02-10T06:23:21;34.10;;;21.42;;
26474;SDS011;14161;52.270;10.334;2023-02-10T06:25:47;29.48;;;18.27;;
26474;SDS011;14161;52.270;10.334;2023-02-10T06:28:13;30.05;;;20.10;;
26474;SDS011;14161;52.270;10.334;2023-02-10T06:30:41;28.55;;;18.48;;
26474;SDS011;14161;52.270;10.334;2023-02-10T06:33:07;31.75;;;18.92;;
26474;SDS011;14161;52.270;10.334;2023-02-10T06:35:32;33.70;;;19.08;;
26474;SDS011;14161;52.270;10.334;2023-02-10T06:37:58;33.45;;;19.40;;
26474;SDS011;14161;52.270;10.334;2023-02-10T06:40:23;30.88;;;18.15;;
26474;SDS011;14161;52.270;10.334;2023-02-10T06:42:49;34.28;;;20.73;;
26474;SDS011;14161;52.270;10.334;2023-02-10T06:45:14;33.50;;;19.00;;
26474;SDS011;14161;52.270;10.334;2023-02-10T06:47:40;31.60;;;18.70;;
26474;SDS011;14161;52.270;10.334;2023-02-10T06:50:05;31.55;;;19.23;;
26474;SDS011;14161;52.270;10.334;2023-02-10T06:52:31;33.08;;;20.88;;
26474;SDS011;14161;52.270;10.334;2023-02-10T06:55:00;35.50;;;21.40;;
26474;SDS011;14161;52.270;10.334;2023-02-10T06:57:25;32.33;;;19.33;;
26474;SDS011;14161;52.270;10.334;2023-02-10T06:59:51;39.53;;;22.40;;
26474;SDS011;14161;52.270;10.334;2023-02-10T16:37:31;11.00;;;5.93;;
26474;SDS011;14161;52.270;10.334;2023-02-10T16:39:57;13.38;;;6.88;;
26474;SDS011;14161;52.270;10.334;2023-02-10T16:42:22;12.55;;;7.80;;
26474;SDS011;14161;52.270;10.334;2023-02-10T16:44:48;13.90;;;7.63;;
26474;SDS011;14161;52.270;10.334;2023-02-10T16:47:15;13.00;;;7.05;;
26474;SDS011;14161;52.270;10.334;2023-02-10T16:49:42;13.90;;;8.40;;
26474;SDS011;14161;52.270;10.334;2023-02-10T16:52:08;11.10;;;7.00;;
26474;SDS011;14161;52.270;10.334;2023-02-10T16:54:33;13.65;;;7.70;;
26474;SDS011;14161;52.270;10.334;2023-02-10T16:56:59;17.05;;;8.80;;
26474;SDS011;14161;52.270;10.334;2023-02-10T16:59:24;19.73;;;10.18;;
26474;SDS011;14161;52.270;10.334;2023-02-10T17:01:50;22.75;;;12.50;;
26474;SDS011;14161;52.270;10.334;2023-02-10T17:04:15;23.95;;;11.68;;
26474;SDS011;14161;52.270;10.334;2023-02-10T17:06:45;19.77;;;9.88;;
26474;SDS011;14161;52.270;10.334;2023-02-10T17:09:16;21.02;;;9.95;;
26474;SDS011;14161;52.270;10.334;2023-02-10T17:11:43;19.25;;;10.00;;
26474;SDS011;14161;52.270;10.334;2023-02-10T17:14:09;17.90;;;9.93;;
26474;SDS011;14161;52.270;10.334;2023-02-10T17:16:35;18.23;;;8.35;;
26474;SDS011;14161;52.270;10.334;2023-02-10T17:19:02;15.27;;;8.77;;
26474;SDS011;14161;52.270;10.334;2023-02-10T17:21:29;18.42;;;9.27;;
26474;SDS011;14161;52.270;10.334;2023-02-10T17:23:54;16.13;;;8.45;;
26474;SDS011;14161;52.270;10.334;2023-02-10T17:26:20;15.13;;;8.23;;
26474;SDS011;14161;52.270;10.334;2023-02-10T17:28:45;16.05;;;9.13;;
26474;SDS011;14161;52.270;10.334;2023-02-10T17:31:18;16.23;;;8.77;;
26474;SDS011;14161;52.270;10.334;2023-02-10T17:33:45;18.42;;;9.10;;
26474;SDS011;14161;52.270;10.334;2023-02-10T17:36:24;15.35;;;8.40;;
26474;SDS011;14161;52.270;10.334;2023-02-10T17:38:50;15.07;;;8.15;;
26474;SDS011;14161;52.270;10.334;2023-02-10T17:41:18;14.07;;;7.85;;
26474;SDS011;14161;52.270;10.334;2023-02-10T17:43:45;17.35;;;9.50;;
26474;SDS011;14161;52.270;10.334;2023-02-10T17:46:14;18.95;;;9.40;;
26474;SDS011;14161;52.270;10.334;2023-02-10T17:48:41;15.55;;;8.75;;
26474;SDS011;14161;52.270;10.334;2023-02-10T17:51:08;11.90;;;7.47;;
26474;SDS011;14161;52.270;10.334;2023-02-10T17:53:35;20.88;;;10.05;;
26474;SDS011;14161;52.270;10.334;2023-02-10T17:56:01;13.20;;;8.30;;
26474;SDS011;14161;52.270;10.334;2023-02-10T17:58:27;13.20;;;7.57;;
26474;SDS011;14161;52.270;10.334;2023-02-10T18:00:53;16.90;;;8.60;;
26474;SDS011;14161;52.270;10.334;2023-02-10T18:03:19;13.32;;;7.90;;
26474;SDS011;14161;52.270;10.334;2023-02-10T18:05:44;16.20;;;8.55;;
26474;SDS011;14161;52.270;10.334;2023-02-10T18:08:12;12.65;;;7.38;;
26474;SDS011;14161;52.270;10.334;2023-02-10T18:10:37;13.32;;;7.72;;
26474;SDS011;14161;52.270;10.334;2023-02-10T18:13:03;14.20;;;6.78;;
26474;SDS011;14161;52.270;10.334;2023-02-10T18:15:29;16.08;;;7.13;;
26474;SDS011;14161;52.270;10.334;2023-02-10T18:17:54;13.75;;;7.40;;
26474;SDS011;14161;52.270;10.334;2023-02-10T18:20:20;12.32;;;7.55;;
26474;SDS011;14161;52.270;10.334;2023-02-10T18:22:46;13.35;;;7.18;;
26474;SDS011;14161;52.270;10.334;2023-02-10T18:25:13;14.32;;;8.05;;
26474;SDS011;14161;52.270;10.334;2023-02-10T18:27:38;13.82;;;8.52;;
26474;SDS011;14161;52.270;10.334;2023-02-10T18:30:04;14.77;;;8.90;;
26474;SDS011;14161;52.270;10.334;2023-02-10T18:32:31;16.23;;;10.38;;
26474;SDS011;14161;52.270;10.334;2023-02-10T18:34:57;19.80;;;11.50;;
26474;SDS011;14161;52.270;10.334;2023-02-10T18:37:23;18.92;;;10.88;;
26474;SDS011;14161;52.270;10.334;2023-02-10T18:39:49;20.15;;;11.52;;
26474;SDS011;14161;52.270;10.334;2023-02-10T18:42:18;14.73;;;8.90;;
26474;SDS011;14161;52.270;10.334;2023-02-10T18:44:43;14.77;;;9.38;;
26474;SDS011;14161;52.270;10.334;2023-02-10T18:47:09;19.92;;;9.38;;
26474;SDS011;14161;52.270;10.334;2023-02-10T18:49:35;14.65;;;8.52;;
26474;SDS011;14161;52.270;10.334;2023-02-10T18:52:01;13.23;;;8.65;;
26474;SDS011;14161;52.270;10.334;2023-02-10T18:54:27;15.65;;;9.27;;
26474;SDS011;14161;52.270;10.334;2023-02-10T18:56:52;18.15;;;10.07;;
26474;SDS011;14161;52.270;10.334;2023-02-10T18:59:17;13.55;;;8.60;;
26474;SDS011;14161;52.270;10.334;2023-02-10T19:01:48;17.35;;;9.98;;
26474;SDS011;14161;52.270;10.334;2023-02-10T19:04:13;16.58;;;8.45;;
26474;SDS011;14161;52.270;10.334;2023-02-10T19:06:39;15.52;;;8.95;;
26474;SDS011;14161;52.270;10.334;2023-02-10T19:09:05;22.80;;;13.68;;
26474;SDS011;14161;52.270;10.334;2023-02-10T19:11:30;19.20;;;12.07;;
26474;SDS011;14161;52.270;10.334;2023-02-10T19:13:56;21.33;;;13.20;;
26474;SDS011;14161;52.270;10.334;2023-02-10T19:16:30;25.00;;;13.48;;
26474;SDS011;14161;52.270;10.334;2023-02-10T19:19:00;21.73;;;12.82;;
26474;SDS011;14161;52.270;10.334;2023-02-10T19:21:26;24.27;;;14.75;;
26474;SDS011;14161;52.270;10.334;2023-02-10T19:23:51;28.27;;;16.77;;
26474;SDS011;14161;52.270;10.334;2023-02-10T19:26:19;31.65;;;17.90;;
26474;SDS011;14161;52.270;10.334;2023-02-10T19:28:45;34.45;;;19.13;;
26474;SDS011;14161;52.270;10.334;2023-02-10T19:31:11;28.65;;;17.27;;
26474;SDS011;14161;52.270;10.334;2023-02-10T19:33:37;33.20;;;20.13;;
26474;SDS011;14161;52.270;10.334;2023-02-10T19:36:03;35.67;;;20.90;;
26474;SDS011;14161;52.270;10.334;2023-02-10T19:38:32;29.48;;;19.75;;
26474;SDS011;14161;52.270;10.334;2023-02-10T19:41:07;32.03;;;19.63;;
26474;SDS011;14161;52.270;10.334;2023-02-10T19:43:43;26.58;;;16.40;;
26474;SDS011;14161;52.270;10.334;2023-02-10T19:46:09;27.23;;;16.98;;
26474;SDS011;14161;52.270;10.334;2023-02-10T19:48:34;31.10;;;16.77;;
26474;SDS011;14161;52.270;10.334;2023-02-10T19:53:31;29.83;;;18.42;;
26474;SDS011;14161;52.270;10.334;2023-02-10T19:55:57;32.72;;;17.73;;
26474;SDS011;14161;52.270;10.334;2023-02-10T19:58:22;32.22;;;19.65;;
26474;SDS011;14161;52.270;10.334;2023-02-10T20:00:48;30.67;;;18.75;;
26474;SDS011;14161;52.270;10.334;2023-02-10T20:03:14;34.13;;;20.48;;
26474;SDS011;14161;52.270;10.334;2023-02-10T20:05:40;28.75;;;17.70;;
26474;SDS011;14161;52.270;10.334;2023-02-10T20:08:05;29.13;;;17.95;;
26474;SDS011;14161;52.270;10.334;2023-02-10T20:10:31;32.22;;;18.45;;
26474;SDS011;14161;52.270;10.334;2023-02-10T20:12:56;31.67;;;19.85;;
26474;SDS011;14161;52.270;10.334;2023-02-10T20:15:22;31.55;;;18.35;;
26474;SDS011;14161;52.270;10.334;2023-02-10T20:17:47;30.05;;;18.23;;
26474;SDS011;14161;52.270;10.334;2023-02-10T20:20:14;30.35;;;17.88;;
26474;SDS011;14161;52.270;10.334;2023-02-10T20:22:39;27.83;;;19.08;;
26474;SDS011;14161;52.270;10.334;2023-02-10T20:25:05;28.83;;;17.67;;
26474;SDS011;14161;52.270;10.334;2023-02-10T20:27:30;32.10;;;18.80;;
26474;SDS011;14161;52.270;10.334;2023-02-10T20:29:56;32.50;;;18.65;;
26474;SDS011;14161;52.270;10.334;2023-02-10T20:32:21;31.30;;;19.80;;
26474;SDS011;14161;52.270;10.334;2023-02-10T20:34:47;32.97;;;20.30;;
26474;SDS011;14161;52.270;10.334;2023-02-10T20:37:12;36.08;;;20.92;;
26474;SDS011;14161;52.270;10.334;2023-02-10T20:39:37;37.13;;;21.98;;
26474;SDS011;14161;52.270;10.334;2023-02-10T20:42:04;31.27;;;20.58;;
26474;SDS011;14161;52.270;10.334;2023-02-10T20:44:29;30.58;;;18.58;;
26474;SDS011;14161;52.270;10.334;2023-02-10T20:46:55;33.45;;;18.98;;
26474;SDS011;14161;52.270;10.334;2023-02-10T20:49:20;35.35;;;21.08;;
26474;SDS011;14161;52.270;10.334;2023-02-10T20:51:46;35.85;;;22.33;;
26474;SDS011;14161;52.270;10.334;2023-02-10T20:54:11;32.85;;;19.63;;
26474;SDS011;14161;52.270;10.334;2023-02-10T20:56:37;28.90;;;17.75;;
26474;SDS011;14161;52.270;10.334;2023-02-10T20:59:03;32.15;;;20.15;;
26474;SDS011;14161;52.270;10.334;2023-02-10T21:01:29;27.15;;;18.42;;
26474;SDS011;14161;52.270;10.334;2023-02-10T21:03:54;29.30;;;18.35;;
